Terminal Aerodrome Forecast
Issued by NWS

Home | Current Version | Previous Version | Text Only | Print | Product List | Glossary On
Versions: 1 2 3 4 5 6 7 8 9 10 11 12 13 14 15 16
000
FTUS43 KIWX 302326
TAFSBN
TAF
KSBN 302326Z 0100/0124 01003KT P6SM -SHRA SCT012 OVC025
      WS020/18045KT
      TEMPO 0100/0103 3SM -SHRA OVC012
     FM010500 17014G22KT 4SM SHRA VCTS OVC020CB
     FM011000 19013G21KT P6SM BKN030
     FM011300 20014G22KT P6SM BKN070
     FM012000 22018G30KT P6SM VCSH OVC030=

USA.gov is the U.S. government's official web portal to all federal, state and local government web resources and services.